»·PEaware :: AAL2671 KPHX-KSAN

AAL2671 :: KPHX-KSAN

FLIGHT INFORMATION

Flight Status: Arrived
Operator:
American Airlines
More flights by this operator :: More flights under this callsign
Pilot: Tomasz G. (27592)
Aircraft: AIRBUS A320
(A320)
More flights by this aircraft type
Origin: KPHX Phoenix Sky Harbor Intl
United States
Destination: KSAN San Diego Intl-Lindbergh
United States
More flights between these airports :: More routes between these airports
Route: FYRBD1 MOHAK J2 HOGGZ LUCKI1
File this flight plan on PilotEdge
Remarks:
Altitude:
(Current/Filed)
28,000ft
Speed:
(Current/Filed)
280kts
Departed: 12-Jan-20 06:00 PM
Arrived: 12-Jan-20 06:53 PM
Distance/Time
Traveled:
264nm/0:53
Distance/Time
To Go:
Arrived

Flight Plot

Page will automatically refresh every two minutes.

Flight plan parsing failed; only flown route is shown


Map Options




Map Legend


Flown Route
Filed Route
Departure Airport
Arrival Airport
Navaid (VOR, NDB)
Fix

Horizontal Profiles

Position Reports

Time Latitude Longitude Heading Altitude Ground
Speed
12-Jan-20 17:19 33.437980 -112.002447 106 1118ft 0kts
12-Jan-20 17:21 33.437980 -112.002447 106 1118ft 0kts
12-Jan-20 17:21 33.437980 -112.002447 106 1118ft 0kts
12-Jan-20 17:22 33.437980 -112.002447 106 1118ft 0kts
12-Jan-20 17:23 33.437980 -112.002447 106 1118ft 0kts
12-Jan-20 17:24 33.437980 -112.002447 106 1118ft 0kts
12-Jan-20 17:25 33.437980 -112.002447 106 1118ft 0kts
12-Jan-20 17:26 33.437980 -112.002447 106 1118ft 0kts
12-Jan-20 17:27 33.437980 -112.002447 106 1118ft 0kts
12-Jan-20 17:28 33.437980 -112.002447 106 1118ft 0kts
12-Jan-20 17:29 33.437980 -112.002447 106 1118ft 0kts
12-Jan-20 17:30 33.437980 -112.002447 106 1118ft 0kts
12-Jan-20 17:31 33.437980 -112.002447 106 1118ft 0kts
12-Jan-20 17:32 33.437980 -112.002447 106 1118ft 0kts
12-Jan-20 17:33 33.437980 -112.002447 106 1118ft 0kts
12-Jan-20 17:34 33.437980 -112.002447 106 1118ft 0kts
12-Jan-20 17:35 33.437980 -112.002447 106 1118ft 0kts
12-Jan-20 17:36 33.437980 -112.002447 106 1118ft 0kts
12-Jan-20 17:37 33.437980 -112.002447 106 1118ft 0kts
12-Jan-20 17:38 33.437980 -112.002447 106 1118ft 0kts
12-Jan-20 17:39 33.437980 -112.002447 106 1118ft 0kts
12-Jan-20 17:40 33.437980 -112.002447 106 1118ft 0kts
12-Jan-20 17:41 33.437980 -112.002447 106 1118ft 0kts
12-Jan-20 17:42 33.437980 -112.002447 106 1118ft 0kts
12-Jan-20 17:43 33.437980 -112.002447 106 1118ft 0kts
12-Jan-20 17:44 33.437980 -112.002447 106 1118ft 0kts
12-Jan-20 17:45 33.437945 -112.002805 55 1118ft 2kts
12-Jan-20 17:46 33.437517 -112.003005 358 1118ft 0kts
12-Jan-20 17:47 33.437517 -112.003005 358 1118ft 0kts
12-Jan-20 17:48 33.437517 -112.003005 358 1118ft 0kts
12-Jan-20 17:49 33.437517 -112.003005 358 1118ft 0kts
12-Jan-20 17:50 33.437517 -112.003005 358 1118ft 0kts
12-Jan-20 17:51 33.437915 -112.003016 359 1118ft 7kts
12-Jan-20 17:52 33.439007 -112.005606 269 1118ft 17kts
12-Jan-20 17:53 33.439011 -112.011292 269 1118ft 16kts
12-Jan-20 17:54 33.439025 -112.017939 270 1118ft 20kts
12-Jan-20 17:55 33.439014 -112.025028 270 1118ft 21kts
12-Jan-20 17:56 33.439769 -112.029666 0 1118ft 0kts
12-Jan-20 17:57 33.439769 -112.029666 0 1118ft 0kts
12-Jan-20 17:58 33.440866 -112.028450 90 1118ft 6kts
12-Jan-20 17:59 33.440854 -112.004954 89 1297ft 177kts
12-Jan-20 18:00 33.438440 -111.942084 94 4084ft 213kts
12-Jan-20 18:01 33.426809 -111.866452 138 7098ft 245kts
12-Jan-20 18:02 33.366003 -111.858604 223 10437ft 245kts
12-Jan-20 18:03 33.356728 -111.931396 275 13882ft 235kts
12-Jan-20 18:04 33.358070 -112.020574 250 15218ft 305kts
12-Jan-20 18:05 33.304336 -112.112203 237 16464ft 355kts
12-Jan-20 18:06 33.244917 -112.208465 237 18497ft 364kts
12-Jan-20 18:07 33.184184 -112.306916 237 20324ft 373kts
12-Jan-20 18:08 33.122307 -112.406995 238 21137ft 375kts
12-Jan-20 18:09 33.059025 -112.509119 237 22553ft 387kts
12-Jan-20 18:10 32.994402 -112.613095 237 23945ft 395kts
12-Jan-20 18:11 32.948996 -112.730402 261 25290ft 392kts
12-Jan-20 18:12 32.931646 -112.858962 261 26601ft 397kts
12-Jan-20 18:13 32.913913 -112.989330 261 27738ft 402kts
12-Jan-20 18:14 32.895855 -113.121156 261 28054ft 405kts
12-Jan-20 18:15 32.877568 -113.253622 261 28056ft 406kts
12-Jan-20 18:16 32.859125 -113.386145 261 28052ft 406kts
12-Jan-20 18:17 32.840585 -113.518334 261 28048ft 406kts
12-Jan-20 18:18 32.821856 -113.650830 261 28049ft 407kts
12-Jan-20 18:19 32.802861 -113.784234 261 28064ft 409kts
12-Jan-20 18:20 32.783729 -113.917581 261 28066ft 409kts
12-Jan-20 18:21 32.775105 -114.052699 269 28058ft 410kts
12-Jan-20 18:22 32.779708 -114.188093 272 28057ft 410kts
12-Jan-20 18:23 32.785018 -114.323441 272 28058ft 410kts
12-Jan-20 18:24 32.806665 -114.455761 286 28065ft 412kts
12-Jan-20 18:25 32.842179 -114.585008 286 28051ft 410kts
12-Jan-20 18:26 32.875705 -114.715054 278 28044ft 410kts
12-Jan-20 18:27 32.876625 -114.850782 268 28065ft 409kts
12-Jan-20 18:28 32.873553 -114.986134 268 28048ft 409kts
12-Jan-20 18:29 32.870352 -115.121533 268 28049ft 409kts
12-Jan-20 18:30 32.867007 -115.256810 268 28050ft 409kts
12-Jan-20 18:31 32.858057 -115.389649 262 28065ft 384kts
12-Jan-20 18:32 32.840582 -115.510418 260 28062ft 364kts
12-Jan-20 18:33 32.821264 -115.628987 260 28063ft 367kts
12-Jan-20 18:34 32.801593 -115.748776 260 28061ft 368kts
12-Jan-20 18:35 32.783583 -115.868852 265 27279ft 365kts
12-Jan-20 18:36 32.774501 -115.991733 266 24142ft 381kts
12-Jan-20 18:37 32.764884 -116.118817 266 21085ft 388kts
12-Jan-20 18:38 32.755115 -116.245865 266 15984ft 389kts
12-Jan-20 18:39 32.746241 -116.359289 266 13984ft 302kts
12-Jan-20 18:40 32.738867 -116.454054 266 11185ft 282kts
12-Jan-20 18:41 32.731270 -116.543224 265 9673ft 267kts
12-Jan-20 18:42 32.722839 -116.629911 264 8388ft 257kts
12-Jan-20 18:43 32.715616 -116.714049 265 7167ft 253kts
12-Jan-20 18:44 32.709117 -116.797375 265 6131ft 245kts
12-Jan-20 18:45 32.690919 -116.871085 250 5434ft 227kts
12-Jan-20 18:46 32.673072 -116.940772 281 4639ft 208kts
12-Jan-20 18:47 32.687229 -116.999230 286 3854ft 171kts
12-Jan-20 18:48 32.699904 -117.051173 286 2600ft 142kts
12-Jan-20 18:49 32.710399 -117.094496 286 1685ft 135kts
12-Jan-20 18:50 32.720700 -117.136898 287 856ft 132kts
12-Jan-20 18:51 32.730884 -117.178692 286 76ft 130kts
12-Jan-20 18:52 32.736267 -117.200873 286 23ft 28kts
12-Jan-20 18:53 32.735460 -117.202216 195 24ft 0kts
12-Jan-20 18:54 32.735460 -117.202216 195 24ft 0kts
12-Jan-20 18:55 32.735460 -117.202216 195 24ft 0kts
12-Jan-20 18:56 32.735131 -117.200427 106 25ft 16kts
12-Jan-20 18:57 32.732332 -117.200091 187 27ft 2kts
12-Jan-20 18:58 32.732222 -117.200109 187 27ft 0kts

Navigation Log

Ident Type
Flight plan parsing failed, navigation log unavailable